Terminal Aerodrome Forecast
Issued by NWS Wilmington, OH

Current Version | Previous Version | Text Only | Print | Product List | Glossary Off
Versions: 1 2 3 4 5 6 7 8 9 10 11 12 13 14 15 16 17 18

000
FTUS41 KILN 202336
TAFCMH
TAF
KCMH 202336Z 2100/2124 16004KT P6SM SCT050
     FM210200 VRB02KT P6SM SCT250
     FM211000 17003KT P6SM SCT050 BKN120
     FM211600 22008KT P6SM SCT050 BKN200=

USA.gov is the U.S. government's official web portal to all federal, state and local government web resources and services.